createdAt,value
2022-08-05T00:01:28.321Z,51.22
2022-08-05T00:03:57.148Z,51.83
2022-08-05T00:06:32.477Z,51.61
2022-08-05T00:09:01.025Z,51.88
2022-08-05T00:11:30.687Z,52.07
2022-08-05T00:14:02.423Z,52.32
2022-08-05T00:16:52.712Z,52.52
2022-08-05T00:19:22.271Z,52.99
2022-08-05T00:21:50.259Z,53.30
2022-08-05T00:24:24.151Z,53.33
2022-08-05T00:26:52.188Z,53.73
2022-08-05T00:29:22.747Z,53.81
2022-08-05T00:32:10.543Z,53.62
2022-08-05T00:35:05.476Z,54.58
2022-08-05T00:37:51.190Z,53.95
2022-08-05T00:40:26.652Z,54.10
2022-08-05T00:42:58.911Z,54.19
2022-08-05T00:45:38.144Z,54.70
2022-08-05T00:48:10.287Z,54.56
2022-08-05T00:50:37.928Z,54.86
2022-08-05T00:53:09.938Z,54.62
2022-08-05T00:55:51.618Z,54.43
2022-08-05T00:58:19.046Z,54.51
2022-08-05T01:00:47.752Z,54.90
2022-08-05T01:03:22.973Z,55.13
2022-08-05T01:05:50.205Z,53.72
2022-08-05T01:08:41.989Z,54.57
2022-08-05T01:11:11.275Z,55.16
2022-08-05T01:13:57.942Z,55.86
2022-08-05T01:16:52.254Z,55.80
2022-08-05T01:19:21.717Z,55.41
2022-08-05T01:22:18.793Z,55.93
2022-08-05T01:24:50.821Z,55.14
2022-08-05T01:27:54.994Z,56.20
2022-08-05T01:30:34.470Z,55.59
2022-08-05T01:33:06.128Z,56.10
2022-08-05T01:35:51.111Z,54.89
2022-08-05T01:38:27.621Z,55.66
2022-08-05T01:41:01.381Z,56.74
2022-08-05T01:43:29.869Z,56.11
2022-08-05T01:45:57.833Z,56.34
2022-08-05T01:48:31.543Z,56.89
2022-08-05T01:51:00.043Z,56.34
2022-08-05T01:53:57.213Z,56.26
2022-08-05T01:58:09.489Z,56.67
2022-08-05T01:59:20.668Z,56.72
2022-08-05T02:01:49.871Z,56.52
2022-08-05T02:04:20.127Z,56.55
2022-08-05T02:06:48.046Z,56.28
2022-08-05T02:09:16.369Z,56.50
2022-08-05T02:11:59.014Z,57.04
2022-08-05T02:14:32.295Z,57.08
2022-08-05T02:17:29.827Z,57.49
2022-08-05T02:20:02.137Z,57.08
2022-08-05T02:22:33.217Z,56.99
2022-08-05T02:25:12.704Z,57.74
2022-08-05T02:27:59.725Z,57.07
2022-08-05T02:30:54.215Z,57.82
2022-08-05T02:33:24.514Z,56.91
2022-08-05T02:36:03.741Z,57.06
2022-08-05T02:38:35.009Z,56.92
2022-08-05T02:41:14.657Z,57.01
2022-08-05T02:44:02.533Z,57.08
2022-08-05T02:46:33.802Z,56.67
2022-08-05T02:49:02.046Z,56.85
2022-08-05T02:52:02.854Z,56.75
2022-08-05T02:54:34.360Z,56.77
2022-08-05T02:57:03.131Z,56.90
2022-08-05T02:59:34.585Z,57.10
2022-08-05T03:02:17.514Z,57.35
2022-08-05T03:04:45.105Z,57.22
2022-08-05T03:07:30.845Z,57.41
2022-08-05T03:09:59.597Z,57.45
2022-08-05T03:12:30.022Z,58.01
2022-08-05T03:14:57.865Z,57.61
2022-08-05T03:17:24.779Z,57.46
2022-08-05T03:19:51.732Z,57.40
2022-08-05T03:22:19.094Z,57.68
2022-08-05T03:25:11.723Z,57.60
2022-08-05T03:27:59.907Z,57.56
2022-08-05T03:30:33.626Z,57.94
2022-08-05T03:33:06.017Z,58.43
2022-08-05T03:35:40.474Z,57.95
2022-08-05T03:38:11.428Z,57.83
2022-08-05T03:40:45.152Z,58.48
2022-08-05T03:43:58.743Z,57.98
2022-08-05T03:46:02.173Z,58.03
2022-08-05T03:48:30.745Z,58.32
2022-08-05T03:52:37.444Z,58.65
2022-08-05T03:55:50.695Z,58.72
2022-08-05T03:57:28.946Z,58.46
2022-08-05T04:00:00.250Z,58.42
2022-08-05T04:02:38.548Z,58.79
2022-08-05T04:05:09.826Z,58.72
2022-08-05T04:07:57.269Z,58.70
2022-08-05T04:10:27.809Z,58.52
2022-08-05T04:12:55.488Z,58.63
2022-08-05T04:15:25.765Z,58.85
2022-08-05T04:17:59.901Z,58.84
2022-08-05T04:20:26.730Z,58.71
2022-08-05T04:22:53.327Z,58.76
2022-08-05T04:25:20.165Z,59.01
2022-08-05T04:28:12.792Z,58.89
2022-08-05T04:30:39.659Z,58.96
2022-08-05T04:33:06.320Z,59.38
2022-08-05T04:36:11.011Z,59.58
2022-08-05T04:38:20.894Z,59.68
2022-08-05T04:40:50.688Z,59.75
2022-08-05T04:43:17.769Z,59.53
2022-08-05T04:45:54.884Z,59.82
2022-08-05T04:48:27.407Z,59.92
2022-08-05T04:51:03.547Z,59.99
2022-08-05T04:53:38.649Z,59.05
2022-08-05T04:56:33.548Z,59.35
2022-08-05T04:58:56.691Z,59.61
2022-08-05T05:02:05.792Z,59.75
2022-08-05T05:04:10.074Z,59.67
2022-08-05T05:06:40.890Z,59.77
2022-08-05T05:09:17.594Z,60.19
2022-08-05T05:11:54.381Z,59.59
2022-08-05T05:14:27.909Z,59.51
2022-08-05T05:16:59.435Z,59.57
2022-08-05T05:19:27.539Z,59.66
2022-08-05T05:22:22.884Z,59.86
2022-08-05T05:24:59.025Z,59.57
2022-08-05T05:27:44.285Z,59.61
2022-08-05T05:30:29.433Z,59.41
2022-08-05T05:33:03.539Z,59.27
2022-08-05T05:35:42.593Z,59.30
2022-08-05T05:38:13.163Z,59.49
2022-08-05T05:40:49.645Z,59.62
2022-08-05T05:43:28.078Z,59.66
2022-08-05T05:46:08.493Z,59.48
2022-08-05T05:48:41.896Z,59.54
2022-08-05T05:51:15.788Z,59.84
2022-08-05T05:53:54.414Z,59.94
2022-08-05T05:56:32.369Z,60.36
2022-08-05T05:59:05.858Z,60.37
2022-08-05T06:01:39.757Z,60.14
2022-08-05T06:04:11.324Z,60.23
2022-08-05T06:06:46.628Z,60.18
2022-08-05T06:09:17.465Z,60.28
2022-08-05T06:12:01.958Z,60.24
2022-08-05T06:14:34.737Z,60.85
2022-08-05T06:17:22.419Z,60.28
2022-08-05T06:19:56.723Z,60.24
2022-08-05T06:22:33.902Z,60.66
2022-08-05T06:25:01.175Z,60.30
2022-08-05T06:28:09.175Z,60.31
2022-08-05T06:30:34.420Z,60.47
2022-08-05T06:33:01.519Z,60.53
2022-08-05T06:36:06.907Z,60.82
2022-08-05T06:38:15.134Z,60.57
2022-08-05T06:40:44.485Z,60.87
2022-08-05T06:43:58.580Z,60.89
2022-08-05T06:46:06.561Z,60.73
2022-08-05T06:48:53.285Z,60.58
2022-08-05T06:51:29.075Z,60.80
2022-08-05T06:53:59.768Z,60.90
2022-08-05T06:56:27.651Z,61.20
2022-08-05T06:58:55.276Z,61.24
2022-08-05T07:01:22.689Z,61.22
2022-08-05T07:03:49.854Z,61.38
2022-08-05T07:06:17.500Z,61.26
2022-08-05T07:08:51.758Z,61.24
2022-08-05T07:11:22.260Z,61.24
2022-08-05T07:14:08.240Z,61.14
2022-08-05T07:18:08.484Z,61.09
2022-08-05T07:22:28.646Z,60.87
2022-08-05T07:25:21.698Z,60.88
2022-08-05T07:27:56.535Z,60.46
2022-08-05T07:30:31.030Z,60.40
2022-08-05T07:32:59.899Z,60.02
2022-08-05T07:35:56.003Z,59.61
2022-08-05T07:38:32.421Z,59.63
2022-08-05T07:42:09.440Z,59.48
2022-08-05T07:43:52.830Z,59.35
2022-08-05T07:46:24.544Z,59.45
2022-08-05T07:49:01.797Z,59.39
2022-08-05T07:51:37.383Z,59.73
2022-08-05T07:54:08.382Z,59.52
2022-08-05T07:56:38.998Z,59.51
2022-08-05T07:59:31.069Z,59.67
2022-08-05T08:02:16.118Z,59.75
2022-08-05T08:04:48.971Z,60.11
2022-08-05T08:07:22.662Z,59.66
2022-08-05T08:09:52.495Z,59.75
2022-08-05T08:12:37.172Z,59.57
2022-08-05T08:15:14.147Z,59.41
2022-08-05T08:17:46.133Z,59.76
2022-08-05T08:20:43.476Z,59.90
2022-08-05T08:23:04.436Z,59.76
2022-08-05T08:26:00.015Z,60.20
2022-08-05T08:28:18.839Z,59.96
2022-08-05T08:31:04.497Z,60.35
2022-08-05T08:33:37.573Z,60.39
2022-08-05T08:38:56.020Z,60.11
2022-08-05T08:41:50.633Z,60.33
2022-08-05T08:45:20.945Z,60.28
2022-08-05T08:47:03.810Z,60.69
2022-08-05T08:50:12.970Z,60.37
2022-08-05T08:52:38.878Z,60.31
2022-08-05T08:55:11.124Z,60.27
2022-08-05T08:57:48.250Z,60.25
2022-08-05T09:00:25.198Z,60.33
2022-08-05T09:02:54.480Z,60.65
2022-08-05T09:05:38.950Z,60.79
2022-08-05T09:08:09.715Z,60.98
2022-08-05T09:10:36.613Z,60.52
2022-08-05T09:13:07.033Z,60.52
2022-08-05T09:15:37.099Z,60.68
2022-08-05T09:18:07.353Z,60.28
2022-08-05T09:20:38.038Z,60.64
2022-08-05T09:23:18.666Z,60.91
2022-08-05T09:26:03.838Z,60.84
2022-08-05T09:28:34.743Z,60.60
2022-08-05T09:31:23.483Z,61.19
2022-08-05T09:34:07.154Z,61.58
2022-08-05T09:36:55.897Z,61.95
2022-08-05T09:39:27.567Z,61.39
2022-08-05T09:42:08.567Z,61.16
2022-08-05T09:44:46.023Z,61.28
2022-08-05T09:47:36.383Z,61.62
2022-08-05T09:50:18.090Z,60.89
2022-08-05T09:53:00.428Z,61.02
2022-08-05T09:55:57.652Z,60.48
2022-08-05T09:58:15.866Z,60.43
2022-08-05T10:00:54.952Z,60.40
2022-08-05T10:03:21.916Z,59.61
2022-08-05T10:06:04.782Z,59.93
2022-08-05T10:08:38.135Z,59.99
2022-08-05T10:11:16.304Z,60.80
2022-08-05T10:13:45.732Z,60.98
2022-08-05T10:16:37.729Z,60.41
2022-08-05T10:19:10.138Z,60.19
2022-08-05T10:21:40.915Z,59.78
2022-08-05T10:24:13.753Z,60.04
2022-08-05T10:26:51.637Z,60.19
2022-08-05T10:29:24.064Z,59.68
2022-08-05T10:33:00.862Z,59.56
2022-08-05T10:35:01.159Z,59.06
2022-08-05T10:37:37.258Z,58.89
2022-08-05T10:40:34.885Z,58.95
2022-08-05T10:43:35.663Z,59.11
2022-08-05T10:46:08.327Z,59.30
2022-08-05T10:48:56.967Z,58.57
2022-08-05T10:51:28.436Z,59.40
2022-08-05T10:53:58.531Z,58.94
2022-08-05T10:56:44.137Z,57.38
2022-08-05T11:00:02.060Z,57.57
2022-08-05T11:02:14.569Z,56.10
2022-08-05T11:04:59.617Z,55.87
2022-08-05T11:07:33.039Z,56.00
2022-08-05T11:10:27.496Z,56.03
2022-08-05T11:12:57.414Z,56.61
2022-08-05T11:16:00.708Z,55.64
2022-08-05T11:18:32.523Z,54.74
2022-08-05T11:21:02.903Z,54.38
2022-08-05T11:24:04.264Z,52.74
2022-08-05T11:26:38.220Z,53.18
2022-08-05T11:29:13.265Z,53.08
2022-08-05T11:31:58.023Z,53.21
2022-08-05T11:34:39.103Z,53.40
2022-08-05T11:38:28.002Z,54.28
2022-08-05T11:40:00.700Z,54.03
2022-08-05T11:42:40.265Z,52.61
2022-08-05T11:45:26.760Z,53.34
2022-08-05T11:47:55.241Z,53.93
2022-08-05T11:50:22.756Z,54.12
2022-08-05T11:52:54.428Z,54.43
2022-08-05T11:55:32.326Z,52.52
2022-08-05T11:58:10.861Z,51.53
2022-08-05T12:00:44.490Z,50.07
2022-08-05T12:03:28.429Z,50.35
2022-08-05T12:06:06.009Z,49.75
2022-08-05T12:09:04.656Z,49.12
2022-08-05T12:11:40.357Z,47.68
2022-08-05T12:14:12.934Z,46.10
2022-08-05T12:16:45.109Z,45.96
2022-08-05T12:20:26.400Z,45.04
2022-08-05T12:22:03.014Z,44.54
2022-08-05T12:24:32.287Z,45.33
2022-08-05T12:27:09.954Z,45.79
2022-08-05T12:30:08.903Z,46.43
2022-08-05T12:32:44.537Z,46.42
2022-08-05T12:35:21.863Z,47.11
2022-08-05T12:37:49.365Z,47.74
2022-08-05T12:40:26.771Z,48.01
2022-08-05T12:42:56.004Z,48.22
2022-08-05T12:45:22.725Z,48.88
2022-08-05T12:48:27.190Z,48.91
2022-08-05T12:52:10.192Z,48.89
2022-08-05T12:54:04.588Z,49.68
2022-08-05T12:56:45.136Z,48.73
2022-08-05T13:00:08.654Z,48.60
2022-08-05T13:02:30.778Z,49.66
2022-08-05T13:04:57.737Z,51.63
2022-08-05T13:07:57.638Z,52.29
2022-08-05T13:10:14.928Z,51.20
2022-08-05T13:12:51.065Z,50.11
2022-08-05T13:15:41.414Z,46.63
2022-08-05T13:18:20.010Z,45.84
2022-08-05T13:20:48.951Z,43.97
2022-08-05T13:23:22.156Z,43.46
2022-08-05T13:25:51.805Z,43.50
2022-08-05T13:28:27.030Z,43.13
2022-08-05T13:30:53.789Z,43.00
2022-08-05T13:34:22.157Z,43.61
2022-08-05T13:36:09.211Z,43.13
2022-08-05T13:38:38.556Z,43.25
2022-08-05T13:41:08.816Z,45.56
2022-08-05T13:43:44.916Z,44.74
2022-08-05T13:47:01.697Z,43.02
2022-08-05T13:49:11.510Z,42.34
2022-08-05T13:51:41.162Z,40.63
2022-08-05T13:54:12.710Z,38.89
2022-08-05T13:56:44.947Z,37.27
2022-08-05T13:59:27.451Z,37.17
2022-08-05T14:02:00.090Z,36.39
2022-08-05T14:04:49.542Z,36.05
2022-08-05T14:07:55.400Z,34.93
2022-08-05T14:10:08.482Z,34.42
2022-08-05T14:12:35.641Z,34.58
2022-08-05T14:15:06.012Z,34.01
2022-08-05T14:17:49.057Z,33.33
2022-08-05T14:20:18.349Z,32.74
2022-08-05T14:22:50.197Z,31.47
2022-08-05T14:25:21.586Z,30.78
2022-08-05T14:27:50.931Z,31.35
2022-08-05T14:30:20.927Z,32.43
2022-08-05T14:32:48.907Z,32.96
2022-08-05T14:35:16.339Z,32.68
2022-08-05T14:37:52.172Z,33.62
2022-08-05T14:40:24.430Z,32.92
2022-08-05T14:42:51.623Z,31.14
2022-08-05T14:45:18.853Z,30.46
2022-08-05T14:48:04.205Z,29.32
2022-08-05T14:50:32.662Z,29.32
2022-08-05T14:53:00.273Z,27.91
2022-08-05T14:55:38.443Z,27.04
2022-08-05T14:58:11.847Z,27.26
2022-08-05T15:00:59.431Z,27.54
2022-08-05T15:03:33.746Z,26.92
2022-08-05T15:06:07.772Z,28.05
2022-08-05T15:09:01.264Z,27.74
2022-08-05T15:11:51.148Z,28.23
2022-08-05T15:14:33.359Z,27.72
2022-08-05T15:17:01.638Z,27.56
2022-08-05T15:19:30.759Z,26.86
2022-08-05T15:21:57.991Z,26.86
2022-08-05T15:24:27.630Z,26.07
2022-08-05T15:26:55.800Z,26.04
2022-08-05T15:32:03.347Z,25.13
2022-08-05T15:34:34.073Z,24.73
2022-08-05T15:37:06.876Z,23.34
2022-08-05T15:41:00.283Z,23.50
2022-08-05T15:42:50.065Z,23.86
2022-08-05T15:45:15.442Z,24.34
2022-08-05T15:47:43.295Z,23.80
2022-08-05T15:50:15.352Z,23.66
2022-08-05T15:52:53.738Z,24.05
2022-08-05T15:55:25.094Z,24.25
2022-08-05T15:58:08.497Z,23.91
2022-08-05T16:00:56.987Z,23.99
2022-08-05T16:03:21.570Z,24.43
2022-08-05T16:05:52.444Z,24.00
2022-08-05T16:08:19.320Z,23.83
2022-08-05T16:10:45.907Z,23.56
2022-08-05T16:13:12.607Z,23.89
2022-08-05T16:15:51.813Z,23.11
2022-08-05T16:18:18.810Z,23.68
2022-08-05T16:20:46.428Z,22.99
2022-08-05T16:23:13.114Z,23.10
2022-08-05T16:25:40.113Z,23.42
2022-08-05T16:28:09.803Z,23.22
2022-08-05T16:30:37.090Z,23.60
2022-08-05T16:33:03.706Z,22.98
2022-08-05T16:35:32.163Z,23.53
2022-08-05T16:38:15.953Z,22.94
2022-08-05T16:40:47.643Z,22.64
2022-08-05T16:43:18.900Z,23.60
2022-08-05T16:46:07.434Z,23.97
2022-08-05T16:48:35.073Z,23.98
2022-08-05T16:51:02.467Z,23.86
2022-08-05T16:54:04.050Z,24.29
2022-08-05T16:56:22.066Z,24.63
2022-08-05T16:58:49.944Z,25.18
2022-08-05T17:01:16.760Z,24.98
2022-08-05T17:03:45.497Z,25.13
2022-08-05T17:06:12.163Z,25.50
2022-08-05T17:08:52.817Z,25.61
2022-08-05T17:11:25.311Z,25.57
2022-08-05T17:14:05.672Z,25.94
2022-08-05T17:16:35.956Z,26.45
2022-08-05T17:19:07.503Z,27.17
2022-08-05T17:21:37.325Z,27.44
2022-08-05T17:24:31.236Z,27.74
2022-08-05T17:26:58.686Z,27.98
2022-08-05T17:29:33.959Z,27.51
2022-08-05T17:32:11.294Z,28.23
2022-08-05T17:34:38.269Z,28.04
2022-08-05T17:37:35.863Z,27.98
2022-08-05T17:39:55.116Z,28.50
2022-08-05T17:42:27.023Z,28.80
2022-08-05T17:44:56.311Z,28.90
2022-08-05T17:47:23.749Z,29.28
2022-08-05T17:49:59.516Z,29.04
2022-08-05T17:52:30.453Z,29.32
2022-08-05T17:54:57.866Z,29.49
2022-08-05T17:57:24.678Z,29.75
2022-08-05T18:00:03.470Z,30.04
2022-08-05T18:02:31.869Z,30.41
2022-08-05T18:04:58.721Z,30.45
2022-08-05T18:07:25.450Z,31.06
2022-08-05T18:10:08.705Z,31.00
2022-08-05T18:12:37.310Z,31.21
2022-08-05T18:15:04.757Z,31.49
2022-08-05T18:17:59.677Z,31.95
2022-08-05T18:20:29.555Z,31.86
2022-08-05T18:23:00.735Z,31.83
2022-08-05T18:25:36.927Z,31.99
2022-08-05T18:28:06.646Z,32.29
2022-08-05T18:30:34.439Z,32.42
2022-08-05T18:33:01.764Z,32.91
2022-08-05T18:36:01.234Z,32.99
2022-08-05T18:38:19.338Z,32.81
2022-08-05T18:41:53.757Z,33.21
2022-08-05T18:43:43.024Z,33.59
2022-08-05T18:46:15.958Z,33.05
2022-08-05T18:48:47.172Z,33.19
2022-08-05T18:52:06.652Z,33.82
2022-08-05T18:54:19.557Z,33.93
2022-08-05T18:56:51.164Z,33.22
2022-08-05T18:59:42.908Z,33.82
2022-08-05T19:02:26.326Z,33.84
2022-08-05T19:05:01.595Z,34.54
2022-08-05T19:07:46.150Z,34.36
2022-08-05T19:10:17.365Z,34.87
2022-08-05T19:12:46.110Z,34.44
2022-08-05T19:15:57.983Z,34.69
2022-08-05T19:18:10.080Z,34.94
2022-08-05T19:20:41.708Z,35.16
2022-08-05T19:24:04.119Z,35.20
2022-08-05T19:26:03.223Z,34.87
2022-08-05T19:28:34.731Z,35.72
2022-08-05T19:31:01.462Z,35.35
2022-08-05T19:33:35.789Z,35.87
2022-08-05T19:36:06.893Z,35.80
2022-08-05T19:38:36.824Z,35.94
2022-08-05T19:41:09.164Z,36.38
2022-08-05T19:44:06.700Z,36.26
2022-08-05T19:46:29.951Z,36.06
2022-08-05T19:49:01.104Z,36.23
2022-08-05T19:52:08.390Z,36.39
2022-08-05T19:54:21.994Z,36.12
2022-08-05T19:57:09.322Z,36.46
2022-08-05T20:00:00.766Z,36.61
2022-08-05T20:02:24.076Z,36.45
2022-08-05T20:04:52.994Z,36.88
2022-08-05T20:07:46.744Z,36.87
2022-08-05T20:10:13.135Z,36.67
2022-08-05T20:12:47.910Z,36.95
2022-08-05T20:15:48.907Z,36.94
2022-08-05T20:18:04.445Z,36.93
2022-08-05T20:20:38.029Z,37.19
2022-08-05T20:23:05.302Z,37.25
2022-08-05T20:25:33.716Z,37.36
2022-08-05T20:28:14.671Z,37.80
2022-08-05T20:30:41.657Z,37.57
2022-08-05T20:33:08.790Z,37.64
2022-08-05T20:35:40.564Z,37.71
2022-08-05T20:38:12.033Z,37.78
2022-08-05T20:40:47.658Z,37.95
2022-08-05T20:43:17.437Z,37.92
2022-08-05T20:46:03.988Z,38.06
2022-08-05T20:48:30.549Z,38.09
2022-08-05T20:50:57.078Z,38.34
2022-08-05T20:53:36.936Z,38.27
2022-08-05T20:56:09.695Z,38.53
2022-08-05T20:58:36.966Z,38.69
2022-08-05T21:01:04.566Z,38.63
2022-08-05T21:03:34.737Z,38.64
2022-08-05T21:06:01.982Z,38.87
2022-08-05T21:08:41.898Z,39.15
2022-08-05T21:12:06.987Z,39.44
2022-08-05T21:14:00.264Z,39.11
2022-08-05T21:16:30.466Z,39.16
2022-08-05T21:19:01.560Z,39.98
2022-08-05T21:21:39.764Z,39.67
2022-08-05T21:24:16.564Z,39.61
2022-08-05T21:26:53.699Z,39.59
2022-08-05T21:29:32.163Z,39.92
2022-08-05T21:31:59.866Z,40.03
2022-08-05T21:34:28.293Z,40.09
2022-08-05T21:36:58.206Z,40.13
2022-08-05T21:39:26.696Z,40.42
2022-08-05T21:42:01.653Z,40.59
2022-08-05T21:44:30.435Z,40.62
2022-08-05T21:46:58.256Z,40.55
2022-08-05T21:49:56.570Z,40.60
2022-08-05T21:52:23.053Z,40.82
2022-08-05T21:54:56.184Z,40.86
2022-08-05T21:57:31.435Z,40.90
2022-08-05T22:00:04.937Z,41.26
2022-08-05T22:02:33.377Z,41.29
2022-08-05T22:05:00.225Z,41.71
2022-08-05T22:07:40.053Z,41.65
2022-08-05T22:10:15.118Z,42.08
2022-08-05T22:12:44.721Z,42.40
2022-08-05T22:15:16.660Z,42.35
2022-08-05T22:18:00.726Z,41.97
2022-08-05T22:20:27.408Z,42.14
2022-08-05T22:23:17.135Z,42.61
2022-08-05T22:26:11.398Z,42.37
2022-08-05T22:28:38.794Z,42.51
2022-08-05T22:31:06.233Z,42.27
2022-08-05T22:33:56.788Z,42.92
2022-08-05T22:36:24.181Z,43.15
2022-08-05T22:38:51.690Z,43.40
2022-08-05T22:42:04.446Z,43.36
2022-08-05T22:44:08.437Z,43.06
2022-08-05T22:46:40.004Z,43.13
2022-08-05T22:49:23.070Z,43.51
2022-08-05T22:52:06.445Z,43.23
2022-08-05T22:54:35.066Z,43.28
2022-08-05T22:57:01.719Z,43.78
2022-08-05T22:59:44.157Z,43.70
2022-08-05T23:02:28.882Z,44.02
2022-08-05T23:05:01.779Z,43.98
2022-08-05T23:07:31.594Z,44.07
2022-08-05T23:10:01.451Z,44.15
2022-08-05T23:12:32.962Z,44.15
2022-08-05T23:15:08.514Z,44.31
2022-08-05T23:17:59.739Z,44.38
2022-08-05T23:20:23.580Z,44.74
2022-08-05T23:22:54.213Z,44.80
2022-08-05T23:25:51.408Z,44.98
2022-08-05T23:28:09.126Z,44.71
2022-08-05T23:30:39.737Z,45.19
2022-08-05T23:33:16.289Z,45.06
2022-08-05T23:35:50.508Z,44.92
2022-08-05T23:38:17.442Z,45.01
2022-08-05T23:40:49.809Z,45.37
2022-08-05T23:43:25.667Z,45.31
2022-08-05T23:46:20.277Z,45.40
2022-08-05T23:49:01.143Z,45.29
2022-08-05T23:51:53.674Z,45.08
2022-08-05T23:54:29.864Z,46.05
2022-08-05T23:57:03.750Z,45.71
2022-08-05T23:59:37.683Z,45.93
